Aérodrome :
LOGIN :

S'inscrire | Disclaimer

   EN    FR    IT 

 










Légende :    VFR   VFR Marginal   IFR   IFR Intensif   IFR Très Intensif
Visi : 
Plafond : 
>= 8 km
>= 3000ft
5 à 8 km
1000 à 3000 ft
1500m à 5 km
500 à 1000 ft
800 à 1500m
200 à 500 ft
< 800m
< 200 ft
Symboles :   Orages  Brouillard  Fortes neiges  Fortes précipitations  Vent > 20 kt
SIGMETs :   Divers  Orages  Givrage  Turbulence  Onde Orograph.  Cendres Volcan.







- Altitude de l'aérodrome : 856 ft
- Code IATA : VGO


LEVX - Vigo Peinador

DERNIER METAR :
  • 220000Z 25003KT 220V290 3000 BCFG -DZ SCT003 BKN009 BKN019 11/11 Q1032 TEMPO 0800 FG

METARs EXPIRÉS :
  • 212330Z 24006KT 210V280 3000 BCFG -DZ SCT003 BKN007 BKN022 11/11 Q1032 TEMPO 0800 FG
  • 212314Z 26008KT 230V300 2000 BCFG -RA SCT003 BKN009 11/11 Q1032 TEMPO 0800 FG
  • 212300Z VRB02KT 0800 R19/P2000 R01/1500U BCFG -RA VV001 11/11 Q1032 TEMPO 0350 FG
  • 212230Z VRB02KT 0300 R01/0400N BCFG VV001 11/11 Q1032 NOSIG
  • 212200Z 20003KT 0800 R19/1100D R01/0800U BCFG VV001 11/11 Q1032 NOSIG
  • 212130Z 20003KT 170V250 0100 R19/1400U R01/0225N BCFG VV001 11/11 Q1032 NOSIG

TAF TAF LEVX
Valide du 22 à 00h jusqu'au 23 à 00h UTC


212300Z 2200/2224 21005KT 3500 BR BKN005 BKN010 TX13/2213Z TN10/2206Z
TEMPO 2200/2224 1500 BCFG BKN001
TEMPO 2200/2224 0600 -RADZ VV001
TEMPO 2200/2224 0350 FG VV001
TEMPO 2200/2224 0150 FG VV001
Pas de NOTAMs connus pour ce terrain.



MET'MAP, la Météo Aéronautique d'un coup d'oeil ! - Copyright ORBIFLY Décembre 2007 - Disclaimer

ORBIFLY MET'MAP TEAM :

Programmation & Développement : Alexandra Zaïnal
Conception & Développement : Baudouin d'Aumeries
Co-Programmation & Développement : Marc-Olivier Méhu
Soutien technique & logistique : Manuel Goepfert

Contact : metmap@orbifly.com




SOURCES & CREDITS :

   NOAA